Time;durP1;ratioP1;P1;durP2;ratioP2;P2;SDS_P1;SDS_P2;PMS_P1;PMS_P2;Temp;Humidity;BMP_temperature;BMP_pressure;BME280_temperature;BME280_humidity;BME280_pressure;Samples;Min_cycle;Max_cycle;Signal;HPM_P1;HPM_P2
2022/02/26 00:01:41;;;;;;;15.23;6.97;;;3.90;99.90;;;;;;4996007;28;20062;-48
2022/02/26 00:04:07;;;;;;;12.48;6.88;;;4.10;99.90;;;;;;4993370;28;20110;-51
2022/02/26 00:06:32;;;;;;;15.00;6.78;;;4.00;99.90;;;;;;4995741;28;20533;-49
2022/02/26 00:08:58;;;;;;;16.08;6.75;;;3.90;99.90;;;;;;4995164;28;20513;-50
2022/02/26 00:11:23;;;;;;;13.73;7.13;;;3.90;99.90;;;;;;4999194;28;20027;-51
2022/02/26 00:14:08;;;;;;;17.95;6.55;;;4.00;99.90;;;;;;4996417;28;20472;-50
2022/02/26 00:16:34;;;;;;;15.43;6.60;;;4.00;99.90;;;;;;4997838;28;20065;-49
2022/02/26 00:19:00;;;;;;;13.57;6.32;;;4.00;99.90;;;;;;4997223;28;20341;-49
2022/02/26 00:21:26;;;;;;;19.40;7.68;;;3.90;99.90;;;;;;4997594;28;20367;-48
2022/02/26 00:23:51;;;;;;;16.38;6.78;;;4.00;99.90;;;;;;4993071;28;20118;-50
2022/02/26 00:26:20;;;;;;;18.55;6.50;;;4.00;99.90;;;;;;4991562;28;20034;-50
2022/02/26 00:28:46;;;;;;;12.05;5.55;;;4.00;99.90;;;;;;4993957;28;20022;-49
2022/02/26 00:31:12;;;;;;;15.23;6.05;;;4.10;99.90;;;;;;4997137;28;20121;-48
2022/02/26 00:33:37;;;;;;;10.35;6.05;;;4.20;99.90;;;;;;4998985;28;20042;-47
2022/02/26 00:36:03;;;;;;;14.52;6.53;;;4.10;99.90;;;;;;4998074;28;20030;-48
2022/02/26 00:38:29;;;;;;;12.02;6.15;;;4.10;99.90;;;;;;4995982;28;20030;-48
2022/02/26 00:40:54;;;;;;;10.52;7.32;;;4.10;99.90;;;;;;4992168;28;20093;-47
2022/02/26 00:43:21;;;;;;;10.80;6.40;;;4.00;99.90;;;;;;4993478;28;20015;-47
2022/02/26 00:45:46;;;;;;;14.10;6.88;;;3.90;99.90;;;;;;4992400;28;20025;-46
2022/02/26 00:48:12;;;;;;;12.75;6.95;;;4.00;99.90;;;;;;4993491;28;20030;-46
2022/02/26 00:50:37;;;;;;;17.50;7.10;;;4.00;99.90;;;;;;4993435;28;20113;-47
2022/02/26 00:53:03;;;;;;;10.70;5.38;;;3.90;99.90;;;;;;4994899;28;20045;-47
2022/02/26 00:55:29;;;;;;;11.73;6.43;;;3.80;99.90;;;;;;4994683;28;20093;-47
2022/02/26 00:57:54;;;;;;;11.30;6.20;;;3.70;99.90;;;;;;4995330;28;20035;-46
2022/02/26 01:00:20;;;;;;;12.85;6.32;;;3.60;99.90;;;;;;4995266;28;20045;-49
2022/02/26 01:02:46;;;;;;;11.32;6.68;;;3.50;99.90;;;;;;4995397;28;20033;-45
2022/02/26 01:05:12;;;;;;;14.02;7.07;;;3.50;99.90;;;;;;4994941;28;20390;-46
2022/02/26 01:07:38;;;;;;;12.30;6.28;;;3.70;99.90;;;;;;4994567;28;20030;-46
2022/02/26 01:10:04;;;;;;;11.77;5.95;;;3.50;99.90;;;;;;4996240;28;20125;-45
2022/02/26 01:12:30;;;;;;;10.45;7.03;;;3.40;99.90;;;;;;4995306;28;20037;-47
2022/02/26 01:14:56;;;;;;;9.77;5.47;;;3.20;99.90;;;;;;4993755;28;20022;-45
2022/02/26 01:17:21;;;;;;;15.48;7.93;;;3.10;99.90;;;;;;4993876;28;20033;-48
2022/02/26 01:19:48;;;;;;;18.50;8.32;;;3.10;99.90;;;;;;4995361;28;20037;-45
2022/02/26 01:22:14;;;;;;;14.75;6.78;;;3.00;99.90;;;;;;4994625;28;20022;-47
2022/02/26 01:24:39;;;;;;;15.52;6.75;;;3.00;99.90;;;;;;4994132;28;20041;-47
2022/02/26 01:27:05;;;;;;;11.90;6.25;;;3.00;99.90;;;;;;4994776;28;20105;-47
2022/02/26 01:29:31;;;;;;;13.95;7.03;;;3.00;99.90;;;;;;4994551;28;20057;-48
2022/02/26 01:31:56;;;;;;;16.80;6.40;;;3.00;99.90;;;;;;4995168;28;20437;-46
2022/02/26 01:34:22;;;;;;;14.00;6.10;;;3.00;99.90;;;;;;4993233;28;20407;-48
2022/02/26 01:36:48;;;;;;;11.57;6.07;;;3.00;99.90;;;;;;4993598;28;20088;-46
2022/02/26 01:39:13;;;;;;;14.27;7.43;;;3.00;99.90;;;;;;4993418;28;20038;-48
2022/02/26 01:41:40;;;;;;;33.33;14.95;;;3.00;99.90;;;;;;4992711;28;20019;-47
2022/02/26 01:44:06;;;;;;;50.80;24.73;;;3.00;99.90;;;;;;4992374;28;20077;-48
2022/02/26 01:46:33;;;;;;;16.05;8.55;;;3.10;99.90;;;;;;4993664;28;20120;-50
2022/02/26 01:48:58;;;;;;;26.23;7.47;;;3.20;99.90;;;;;;4992688;28;20032;-48
2022/02/26 01:51:24;;;;;;;20.90;8.13;;;3.30;99.90;;;;;;4991401;28;20069;-48
2022/02/26 01:53:49;;;;;;;14.07;6.93;;;3.40;99.90;;;;;;4992476;28;20033;-47
2022/02/26 01:56:15;;;;;;;10.95;7.32;;;3.40;99.90;;;;;;4990905;28;20026;-48
2022/02/26 01:58:42;;;;;;;15.90;7.72;;;3.40;99.90;;;;;;4992537;28;20027;-48
2022/02/26 02:01:08;;;;;;;15.20;7.25;;;3.40;99.90;;;;;;4992593;28;20023;-49
2022/02/26 02:03:33;;;;;;;24.65;9.02;;;3.40;99.90;;;;;;4991073;28;20113;-49
2022/02/26 02:06:00;;;;;;;15.63;7.55;;;3.30;99.90;;;;;;4991343;28;20069;-47
2022/02/26 02:08:26;;;;;;;18.33;7.25;;;3.30;99.90;;;;;;4992335;28;20038;-46
2022/02/26 02:10:53;;;;;;;17.95;8.30;;;3.10;99.90;;;;;;4992512;28;20109;-48
2022/02/26 02:13:21;;;;;;;15.55;7.60;;;3.10;99.90;;;;;;4992396;28;20368;-49
2022/02/26 02:15:47;;;;;;;17.52;8.20;;;3.00;99.90;;;;;;4993900;28;20036;-50
2022/02/26 02:18:15;;;;;;;23.73;7.10;;;3.00;99.90;;;;;;4996456;28;20030;-48
2022/02/26 02:20:43;;;;;;;15.85;7.32;;;3.00;99.90;;;;;;4996398;28;20034;-51
2022/02/26 02:23:08;;;;;;;18.65;7.80;;;2.90;99.90;;;;;;4994459;28;20018;-49
2022/02/26 02:25:36;;;;;;;32.58;8.45;;;2.90;99.90;;;;;;4996047;28;20030;-51
2022/02/26 02:28:03;;;;;;;15.60;6.70;;;3.00;99.90;;;;;;4996063;28;20058;-50
2022/02/26 02:30:29;;;;;;;22.27;8.20;;;3.00;99.90;;;;;;4996575;28;20031;-46
2022/02/26 02:32:56;;;;;;;21.00;7.43;;;3.10;99.90;;;;;;4996418;28;20101;-45
2022/02/26 02:35:33;;;;;;;21.45;9.85;;;3.10;99.90;;;;;;4995049;28;20410;-49
2022/02/26 02:38:07;;;;;;;16.65;8.30;;;3.20;99.90;;;;;;4978399;28;20037;-49
2022/02/26 02:40:32;;;;;;;17.73;7.30;;;3.30;99.90;;;;;;4995845;28;20046;-46
2022/02/26 02:42:58;;;;;;;22.13;7.43;;;3.40;99.90;;;;;;4994462;28;20058;-46
2022/02/26 02:45:24;;;;;;;14.73;7.82;;;3.50;99.90;;;;;;4994339;28;20031;-46
2022/02/26 02:47:50;;;;;;;12.98;7.18;;;3.50;99.90;;;;;;4995562;28;20018;-45
2022/02/26 02:50:16;;;;;;;14.88;7.75;;;3.50;99.90;;;;;;4995565;28;20069;-48
2022/02/26 02:52:43;;;;;;;16.88;6.97;;;3.60;99.90;;;;;;4994148;28;20034;-46
2022/02/26 02:55:10;;;;;;;16.45;7.22;;;3.60;99.90;;;;;;4995436;28;20023;-48
2022/02/26 02:57:36;;;;;;;34.20;10.00;;;3.60;99.90;;;;;;4994980;28;20058;-50
2022/02/26 03:00:05;;;;;;;18.08;7.57;;;3.60;99.90;;;;;;4995420;28;20402;-50
2022/02/26 03:02:31;;;;;;;16.15;8.40;;;3.60;99.90;;;;;;4995423;28;20054;-48
2022/02/26 03:04:57;;;;;;;16.45;7.20;;;3.70;99.90;;;;;;4995880;28;20022;-46
2022/02/26 03:07:22;;;;;;;13.35;6.13;;;3.80;99.90;;;;;;4995188;28;20566;-46
2022/02/26 03:09:48;;;;;;;17.98;7.80;;;3.80;99.90;;;;;;4995375;28;20070;-45
2022/02/26 03:12:13;;;;;;;22.77;7.78;;;3.80;99.90;;;;;;4995298;28;20397;-46
2022/02/26 03:14:38;;;;;;;21.70;7.97;;;3.90;99.90;;;;;;4995822;28;20110;-46
2022/02/26 03:17:05;;;;;;;20.33;8.15;;;3.90;99.90;;;;;;4995831;28;20441;-46
2022/02/26 03:19:30;;;;;;;20.63;8.38;;;3.90;99.90;;;;;;4995501;28;20091;-47
2022/02/26 03:21:56;;;;;;;27.55;8.45;;;3.90;99.90;;;;;;4995811;28;20113;-45
2022/02/26 03:24:21;;;;;;;22.13;7.10;;;3.90;99.90;;;;;;4994934;28;20027;-46
2022/02/26 03:26:53;;;;;;;15.18;6.50;;;3.90;99.90;;;;;;4995453;28;20030;-47
2022/02/26 03:29:19;;;;;;;15.07;6.88;;;3.90;99.90;;;;;;4994119;28;20478;-48
2022/02/26 03:31:46;;;;;;;20.92;6.20;;;3.90;99.90;;;;;;4995009;28;20041;-45
2022/02/26 03:34:12;;;;;;;18.92;6.63;;;3.90;99.90;;;;;;4993537;28;20398;-48
2022/02/26 03:36:37;;;;;;;12.48;5.75;;;3.90;99.90;;;;;;4993671;28;20022;-48
2022/02/26 03:39:04;;;;;;;15.43;6.47;;;3.90;99.90;;;;;;4994637;28;20474;-52
2022/02/26 03:41:30;;;;;;;16.42;6.70;;;3.90;99.90;;;;;;4995104;28;20085;-48
2022/02/26 03:43:55;;;;;;;21.92;7.60;;;3.90;99.90;;;;;;4994622;28;20295;-49
2022/02/26 03:46:23;;;;;;;21.85;6.93;;;3.90;99.90;;;;;;4994793;28;20023;-49
2022/02/26 03:48:52;;;;;;;21.58;5.57;;;3.90;99.90;;;;;;4995026;28;20489;-50
2022/02/26 03:51:17;;;;;;;14.60;7.05;;;3.90;99.90;;;;;;4994386;28;20457;-52
2022/02/26 03:53:43;;;;;;;17.20;6.07;;;3.90;99.90;;;;;;4994383;28;20026;-48
2022/02/26 03:56:09;;;;;;;16.10;5.75;;;3.90;99.90;;;;;;4994302;28;20061;-53
2022/02/26 03:58:34;;;;;;;22.42;5.57;;;4.00;99.90;;;;;;4994665;28;20490;-50
2022/02/26 04:01:00;;;;;;;20.67;5.40;;;4.00;99.90;;;;;;4993362;28;20026;-48
2022/02/26 04:03:25;;;;;;;17.35;5.78;;;3.90;99.90;;;;;;4992919;28;20029;-49
2022/02/26 04:05:51;;;;;;;19.75;5.88;;;3.90;99.90;;;;;;4994390;28;20173;-48
2022/02/26 04:08:17;;;;;;;19.45;5.90;;;3.90;99.90;;;;;;4994265;28;20401;-50
2022/02/26 04:10:42;;;;;;;23.98;5.68;;;3.80;99.90;;;;;;4994353;28;20034;-50
2022/02/26 04:13:08;;;;;;;25.63;5.68;;;3.80;99.90;;;;;;4994161;28;20499;-50
2022/02/26 04:15:33;;;;;;;20.05;6.55;;;3.70;99.90;;;;;;4994457;28;20430;-48
2022/02/26 04:17:59;;;;;;;23.17;6.85;;;3.70;99.90;;;;;;4994576;28;20038;-47
2022/02/26 04:20:25;;;;;;;23.70;5.85;;;3.70;99.90;;;;;;4994181;28;20026;-46
2022/02/26 04:22:50;;;;;;;19.40;6.05;;;3.70;99.90;;;;;;4994443;28;20030;-46
2022/02/26 04:25:16;;;;;;;18.30;5.35;;;3.70;99.90;;;;;;4994599;28;20122;-52
2022/02/26 04:27:41;;;;;;;20.08;6.03;;;3.70;99.90;;;;;;4994132;28;20097;-45
2022/02/26 04:30:09;;;;;;;19.33;6.05;;;3.60;99.90;;;;;;4994582;28;20117;-47
2022/02/26 04:32:35;;;;;;;27.25;6.68;;;3.70;99.90;;;;;;4992862;28;20034;-51
2022/02/26 04:35:00;;;;;;;18.83;5.82;;;3.70;99.90;;;;;;4993519;28;20030;-46
2022/02/26 04:37:26;;;;;;;18.77;5.95;;;3.70;99.90;;;;;;4993659;28;20084;-46
2022/02/26 04:39:52;;;;;;;14.10;5.18;;;3.60;99.90;;;;;;4993115;28;20399;-51
2022/02/26 04:42:18;;;;;;;16.08;5.03;;;3.60;99.90;;;;;;4993618;28;20383;-50
2022/02/26 04:44:46;;;;;;;21.45;4.82;;;3.60;99.90;;;;;;4993717;28;20161;-48
2022/02/26 04:47:13;;;;;;;15.18;5.75;;;3.60;99.90;;;;;;4993812;28;20472;-46
2022/02/26 04:49:39;;;;;;;15.43;4.88;;;3.60;99.90;;;;;;4993390;28;20153;-49
2022/02/26 04:52:06;;;;;;;19.83;6.25;;;3.50;99.90;;;;;;4993420;28;20395;-50
2022/02/26 04:54:32;;;;;;;18.58;5.80;;;3.50;99.90;;;;;;4993650;28;20060;-49
2022/02/26 04:56:57;;;;;;;22.65;5.20;;;3.50;99.90;;;;;;4993248;28;20042;-47
2022/02/26 04:59:23;;;;;;;14.45;5.68;;;3.40;99.90;;;;;;4993744;28;20041;-47
2022/02/26 05:01:48;;;;;;;20.02;5.25;;;3.30;99.90;;;;;;4992435;28;20029;-47
2022/02/26 05:04:14;;;;;;;25.45;7.07;;;3.30;99.90;;;;;;4994016;28;20102;-52
2022/02/26 05:06:39;;;;;;;21.65;5.97;;;3.20;99.90;;;;;;4992896;28;20023;-48
2022/02/26 05:09:05;;;;;;;25.30;6.47;;;3.10;99.90;;;;;;4993991;28;20026;-50
2022/02/26 05:11:31;;;;;;;16.45;5.95;;;3.10;99.90;;;;;;4993533;28;20498;-47
2022/02/26 05:13:56;;;;;;;23.52;5.53;;;3.10;99.90;;;;;;4993871;28;20027;-49
2022/02/26 05:16:22;;;;;;;21.73;7.68;;;3.00;99.90;;;;;;4995059;28;20026;-48
2022/02/26 05:18:47;;;;;;;17.10;6.97;;;3.00;99.90;;;;;;4994360;28;20465;-46
2022/02/26 05:21:13;;;;;;;25.75;6.15;;;2.90;99.90;;;;;;4994350;28;20065;-48
2022/02/26 05:23:42;;;;;;;25.35;8.77;;;2.90;99.90;;;;;;4994375;28;20081;-50
2022/02/26 05:26:11;;;;;;;13.05;5.97;;;2.80;99.90;;;;;;4994615;28;20405;-47
2022/02/26 05:28:37;;;;;;;15.02;6.18;;;2.80;99.90;;;;;;4994906;28;20030;-46
2022/02/26 05:31:03;;;;;;;20.85;5.72;;;2.80;99.90;;;;;;4995040;28;20022;-46
2022/02/26 05:33:28;;;;;;;11.02;5.68;;;2.70;99.90;;;;;;4993762;28;20034;-46
2022/02/26 05:35:54;;;;;;;28.60;8.75;;;2.70;99.90;;;;;;4994930;28;20485;-45
2022/02/26 05:38:19;;;;;;;22.75;7.35;;;2.70;99.90;;;;;;4994422;28;20026;-50
2022/02/26 05:40:45;;;;;;;22.27;8.80;;;2.70;99.90;;;;;;4993471;28;20044;-48
2022/02/26 05:43:10;;;;;;;26.95;8.02;;;2.60;99.90;;;;;;4993070;28;20065;-46
2022/02/26 05:45:36;;;;;;;21.35;7.00;;;2.60;99.90;;;;;;4993042;28;20395;-51
2022/02/26 05:48:02;;;;;;;20.85;7.22;;;2.60;99.90;;;;;;4992913;28;20077;-47
2022/02/26 05:50:27;;;;;;;16.48;6.95;;;2.60;99.90;;;;;;4993933;28;20104;-46
2022/02/26 05:52:53;;;;;;;16.27;6.43;;;2.60;99.90;;;;;;4997760;28;20065;-47
2022/02/26 05:55:18;;;;;;;18.52;6.15;;;2.60;99.90;;;;;;4997166;28;20026;-49
2022/02/26 05:57:44;;;;;;;19.50;7.13;;;2.60;99.90;;;;;;4996253;28;20118;-48
2022/02/26 06:00:11;;;;;;;21.55;7.38;;;2.60;99.90;;;;;;4996198;28;20141;-46
2022/02/26 06:02:37;;;;;;;20.98;7.10;;;2.60;99.90;;;;;;4997228;28;20034;-49
2022/02/26 06:05:02;;;;;;;25.60;7.38;;;2.60;99.90;;;;;;4996673;28;20062;-45
2022/02/26 06:07:29;;;;;;;23.83;7.03;;;2.60;99.90;;;;;;4996909;28;20537;-48
2022/02/26 06:09:55;;;;;;;25.50;8.05;;;2.60;99.90;;;;;;4997022;28;20109;-52
2022/02/26 06:12:20;;;;;;;20.15;6.57;;;2.60;99.90;;;;;;4997017;28;20129;-50
2022/02/26 06:14:46;;;;;;;14.88;6.50;;;2.50;99.90;;;;;;4997171;28;20422;-46
2022/02/26 06:17:12;;;;;;;27.58;8.45;;;2.50;99.90;;;;;;4997579;28;20030;-46
2022/02/26 06:19:37;;;;;;;26.92;8.07;;;2.50;99.90;;;;;;4996675;28;20455;-49
2022/02/26 06:22:03;;;;;;;20.10;7.60;;;2.50;99.90;;;;;;4996832;28;20026;-47
2022/02/26 06:24:29;;;;;;;19.23;7.22;;;2.40;99.90;;;;;;4995488;28;20482;-45
2022/02/26 06:26:54;;;;;;;20.02;7.13;;;2.40;99.90;;;;;;4996642;28;20015;-48
2022/02/26 06:29:20;;;;;;;19.00;7.15;;;2.40;99.90;;;;;;4997136;28;20068;-53
2022/02/26 06:31:45;;;;;;;19.63;7.10;;;2.40;99.90;;;;;;4996928;28;20034;-46
2022/02/26 06:34:11;;;;;;;20.88;6.93;;;2.40;99.90;;;;;;4997002;28;20406;-45
2022/02/26 06:36:38;;;;;;;26.70;6.57;;;2.40;99.90;;;;;;4997605;28;20030;-49
2022/02/26 06:39:04;;;;;;;21.70;7.22;;;2.50;99.90;;;;;;4996458;28;20033;-46
2022/02/26 06:41:29;;;;;;;19.17;7.28;;;2.60;99.90;;;;;;4996760;28;20401;-47
2022/02/26 06:43:56;;;;;;;18.67;7.85;;;2.60;99.90;;;;;;4996179;28;20041;-51
2022/02/26 06:46:22;;;;;;;22.48;7.20;;;2.80;99.90;;;;;;4996554;28;20049;-48
2022/02/26 06:48:47;;;;;;;22.30;7.47;;;2.90;99.90;;;;;;4994912;28;20019;-49
2022/02/26 06:51:13;;;;;;;20.70;6.60;;;2.90;99.90;;;;;;4996361;28;20029;-46
2022/02/26 06:53:39;;;;;;;15.88;7.18;;;3.10;99.90;;;;;;4995851;28;20027;-45
2022/02/26 06:56:05;;;;;;;24.55;8.02;;;3.20;99.90;;;;;;4996618;28;20213;-53
2022/02/26 06:58:31;;;;;;;17.58;6.00;;;3.20;99.90;;;;;;4996108;28;20490;-48
2022/02/26 07:00:56;;;;;;;15.80;7.13;;;3.40;99.90;;;;;;4995568;28;20406;-49
2022/02/26 07:03:22;;;;;;;19.58;7.13;;;3.50;99.90;;;;;;4996007;28;20019;-50
2022/02/26 07:05:47;;;;;;;25.73;7.25;;;3.80;99.90;;;;;;4995921;28;20029;-48
2022/02/26 07:08:13;;;;;;;19.60;6.20;;;4.20;99.90;;;;;;4995822;28;20022;-47
2022/02/26 07:10:38;;;;;;;17.00;5.90;;;4.60;99.90;;;;;;4994407;28;20030;-46
2022/02/26 07:13:04;;;;;;;14.43;6.15;;;5.00;99.90;;;;;;4995657;28;20387;-48
2022/02/26 07:15:30;;;;;;;12.43;5.13;;;5.40;99.90;;;;;;4995543;28;20096;-48
2022/02/26 07:17:55;;;;;;;22.88;8.18;;;5.80;99.90;;;;;;4995129;28;20423;-52
2022/02/26 07:20:21;;;;;;;19.50;7.80;;;6.40;99.90;;;;;;4995165;28;20132;-48
2022/02/26 07:22:46;;;;;;;28.65;11.52;;;6.60;99.90;;;;;;4994987;28;20023;-49
2022/02/26 07:25:12;;;;;;;20.75;8.73;;;7.00;99.90;;;;;;4995366;28;20187;-45
2022/02/26 07:27:38;;;;;;;27.00;7.88;;;7.50;99.90;;;;;;4995730;28;20032;-48
2022/02/26 07:30:05;;;;;;;13.80;6.22;;;7.60;99.90;;;;;;4995308;28;20026;-48
2022/02/26 07:32:31;;;;;;;18.88;5.40;;;7.80;99.90;;;;;;4996753;28;20023;-51
2022/02/26 07:34:59;;;;;;;17.38;5.88;;;8.00;99.90;;;;;;4995533;28;20671;-46
2022/02/26 07:37:24;;;;;;;14.25;5.18;;;8.20;99.90;;;;;;4995373;28;20062;-49
2022/02/26 07:39:50;;;;;;;10.07;5.20;;;8.40;99.90;;;;;;4994310;28;20030;-47
2022/02/26 07:42:16;;;;;;;14.40;6.10;;;8.40;99.90;;;;;;4995814;28;20018;-48
2022/02/26 07:44:41;;;;;;;13.57;5.70;;;8.00;99.90;;;;;;4994664;28;20026;-46
2022/02/26 07:47:07;;;;;;;14.13;5.50;;;7.40;99.90;;;;;;4996069;28;20474;-47
2022/02/26 07:49:32;;;;;;;12.45;6.00;;;6.90;99.90;;;;;;4995794;28;20072;-48
2022/02/26 07:51:58;;;;;;;10.18;5.38;;;6.40;99.90;;;;;;4992047;28;20038;-51
2022/02/26 07:54:23;;;;;;;15.82;6.47;;;6.00;99.90;;;;;;4993941;28;20069;-48
2022/02/26 07:56:49;;;;;;;16.80;6.25;;;5.70;99.90;;;;;;4981539;28;20039;-47
2022/02/26 07:59:14;;;;;;;17.85;5.75;;;5.50;99.90;;;;;;4977557;28;20101;-50
2022/02/26 08:01:40;;;;;;;8.80;5.40;;;5.30;99.90;;;;;;4994416;28;20027;-46
2022/02/26 08:04:07;;;;;;;20.52;6.45;;;5.10;99.90;;;;;;4988280;28;20553;-44
2022/02/26 08:06:33;;;;;;;23.77;7.07;;;5.00;99.90;;;;;;4996561;28;20041;-48
2022/02/26 08:08:59;;;;;;;19.05;7.13;;;4.90;99.90;;;;;;4995637;28;20033;-46
2022/02/26 08:11:28;;;;;;;15.93;7.55;;;4.80;99.90;;;;;;4981666;28;20027;-46
2022/02/26 08:13:55;;;;;;;19.67;9.50;;;4.70;99.90;;;;;;4976184;28;20022;-47
2022/02/26 08:16:23;;;;;;;14.32;7.45;;;4.70;99.90;;;;;;4975398;28;20508;-48
2022/02/26 08:18:48;;;;;;;27.80;8.48;;;4.70;99.90;;;;;;4990048;28;20068;-47
2022/02/26 08:21:14;;;;;;;22.40;9.23;;;4.70;99.90;;;;;;4995695;28;20049;-52
2022/02/26 08:23:39;;;;;;;15.90;6.63;;;4.80;99.90;;;;;;4994767;28;20023;-47
2022/02/26 08:26:05;;;;;;;27.15;7.00;;;4.80;99.90;;;;;;4995520;28;20097;-53
2022/02/26 08:28:31;;;;;;;25.55;7.63;;;4.80;99.90;;;;;;4988543;28;20018;-49
2022/02/26 08:30:57;;;;;;;20.95;7.32;;;4.80;99.90;;;;;;4996548;28;20038;-47
2022/02/26 08:33:22;;;;;;;21.50;7.82;;;4.80;99.90;;;;;;4980017;28;20534;-50
2022/02/26 08:35:48;;;;;;;14.00;6.93;;;4.90;99.90;;;;;;4980851;28;20169;-49
2022/02/26 08:38:13;;;;;;;14.95;6.88;;;4.80;99.90;;;;;;4992781;28;20052;-44
2022/02/26 08:40:39;;;;;;;22.13;7.72;;;5.00;99.90;;;;;;4993380;28;20500;-45
2022/02/26 08:43:04;;;;;;;18.17;8.45;;;5.00;99.90;;;;;;4994157;28;20034;-45
2022/02/26 08:45:30;;;;;;;35.70;9.68;;;5.00;99.90;;;;;;4994713;28;20018;-48
2022/02/26 08:47:56;;;;;;;24.45;9.80;;;5.10;99.90;;;;;;4995307;28;20106;-48
2022/02/26 08:50:22;;;;;;;24.85;10.48;;;5.20;99.90;;;;;;4994806;28;20086;-46
2022/02/26 08:52:48;;;;;;;29.85;10.57;;;5.20;99.90;;;;;;4994148;28;20037;-46
2022/02/26 08:55:14;;;;;;;31.58;12.85;;;5.20;99.90;;;;;;4994108;28;20027;-45
2022/02/26 08:57:40;;;;;;;34.92;12.45;;;5.30;99.90;;;;;;4994132;28;20031;-45
2022/02/26 09:00:08;;;;;;;29.27;11.25;;;5.30;99.90;;;;;;4994025;28;20105;-45
2022/02/26 09:02:35;;;;;;;30.85;10.90;;;5.40;99.90;;;;;;4992770;28;20125;-44
2022/02/26 09:05:00;;;;;;;21.80;9.35;;;5.50;99.90;;;;;;4993261;28;20065;-46
2022/02/26 09:07:27;;;;;;;17.15;7.97;;;5.60;99.90;;;;;;4993558;28;20027;-44
2022/02/26 09:09:52;;;;;;;28.45;8.55;;;5.50;99.90;;;;;;4993473;28;20033;-46
2022/02/26 09:12:18;;;;;;;20.27;8.20;;;5.60;99.90;;;;;;4993516;28;20408;-50
2022/02/26 09:14:44;;;;;;;18.27;7.78;;;5.70;99.90;;;;;;4994090;28;20035;-47
2022/02/26 09:17:09;;;;;;;21.63;7.85;;;5.70;99.90;;;;;;4994145;28;20498;-46
2022/02/26 09:19:36;;;;;;;23.23;8.40;;;5.70;99.90;;;;;;4993331;28;20034;-47
2022/02/26 09:22:04;;;;;;;26.55;7.68;;;5.70;99.90;;;;;;4993985;28;20025;-45
2022/02/26 09:24:33;;;;;;;14.43;6.50;;;5.80;99.90;;;;;;4993870;28;20018;-46
2022/02/26 09:26:59;;;;;;;21.73;6.72;;;5.90;99.90;;;;;;4993983;28;20026;-48
2022/02/26 09:29:24;;;;;;;22.42;8.35;;;6.00;99.90;;;;;;4993623;28;20098;-45
2022/02/26 09:31:51;;;;;;;25.08;4.82;;;6.40;99.90;;;;;;4992537;28;20145;-45
2022/02/26 09:34:20;;;;;;;17.10;5.20;;;7.50;99.90;;;;;;4993254;28;20030;-45
2022/02/26 09:36:47;;;;;;;13.25;3.90;;;8.70;99.90;;;;;;4993616;28;20037;-44
2022/02/26 09:39:16;;;;;;;11.00;3.05;;;9.90;97.80;;;;;;4992773;28;20030;-45
2022/02/26 09:41:42;;;;;;;24.33;5.05;;;10.80;95.00;;;;;;4993196;28;20279;-43
2022/02/26 09:44:09;;;;;;;18.38;5.03;;;11.40;93.70;;;;;;4993889;28;20030;-45
2022/02/26 09:46:35;;;;;;;22.95;5.72;;;12.00;92.80;;;;;;4994099;28;20019;-45
2022/02/26 09:49:01;;;;;;;18.88;4.35;;;12.20;92.10;;;;;;4993641;28;20026;-48
2022/02/26 09:51:27;;;;;;;15.43;3.42;;;12.60;90.20;;;;;;4993227;28;20072;-50
2022/02/26 09:53:54;;;;;;;19.05;4.80;;;12.90;90.40;;;;;;4993447;28;20037;-47
2022/02/26 09:56:22;;;;;;;16.00;4.43;;;13.00;88.90;;;;;;4991814;28;20137;-48
2022/02/26 09:58:48;;;;;;;11.73;3.47;;;13.50;85.90;;;;;;4992741;28;20371;-48
2022/02/26 10:01:14;;;;;;;14.10;3.03;;;13.90;80.60;;;;;;4993162;28;20026;-50
2022/02/26 10:03:40;;;;;;;17.95;4.18;;;13.40;77.10;;;;;;4993402;28;20025;-45
2022/02/26 10:06:20;;;;;;;15.18;4.45;;;12.30;84.90;;;;;;4992798;28;20026;-45
2022/02/26 10:08:55;;;;;;;17.75;5.80;;;11.60;86.60;;;;;;4992810;28;20018;-45
2022/02/26 10:11:33;;;;;;;11.40;3.22;;;11.70;85.50;;;;;;4992960;28;20430;-49
2022/02/26 10:14:14;;;;;;;14.82;3.45;;;11.30;83.00;;;;;;4993325;28;20026;-49
2022/02/26 10:16:42;;;;;;;9.45;3.25;;;11.30;82.70;;;;;;4991762;28;20506;-46
2022/02/26 10:19:08;;;;;;;7.97;2.38;;;11.10;85.80;;;;;;4992654;28;20076;-51
2022/02/26 10:21:34;;;;;;;10.73;2.35;;;10.70;83.50;;;;;;4993276;28;20442;-45
2022/02/26 10:23:59;;;;;;;12.18;3.10;;;10.40;86.20;;;;;;4993087;28;20057;-45
2022/02/26 10:26:27;;;;;;;11.40;2.75;;;9.90;89.60;;;;;;4993436;28;20049;-46
2022/02/26 10:29:10;;;;;;;13.43;3.70;;;10.20;88.50;;;;;;4992008;28;20019;-47
2022/02/26 10:31:45;;;;;;;13.25;3.10;;;10.20;90.00;;;;;;4993341;28;20101;-45
2022/02/26 10:34:36;;;;;;;15.07;3.42;;;10.30;90.20;;;;;;4992919;28;20062;-47
2022/02/26 10:37:13;;;;;;;19.17;3.78;;;9.70;90.90;;;;;;4994719;28;20026;-44
2022/02/26 10:39:43;;;;;;;11.77;3.05;;;9.30;92.20;;;;;;4997327;28;20109;-45
2022/02/26 10:42:16;;;;;;;12.98;3.10;;;9.10;92.00;;;;;;4997525;28;20014;-48
2022/02/26 10:44:42;;;;;;;19.52;3.33;;;8.80;91.80;;;;;;4996536;28;20383;-46
2022/02/26 10:47:15;;;;;;;17.73;3.22;;;8.50;92.60;;;;;;4997478;28;20031;-47
2022/02/26 10:49:42;;;;;;;14.02;3.63;;;8.50;93.40;;;;;;4996920;28;20114;-50
2022/02/26 10:52:09;;;;;;;19.88;3.08;;;8.40;93.20;;;;;;4996955;28;20026;-48
2022/02/26 10:54:37;;;;;;;10.65;2.72;;;8.10;93.30;;;;;;4996083;28;20113;-45
2022/02/26 10:57:04;;;;;;;14.45;2.80;;;8.00;94.80;;;;;;4995438;28;20126;-49
2022/02/26 10:59:37;;;;;;;15.15;2.95;;;8.30;94.40;;;;;;4994774;28;20126;-47
2022/02/26 11:02:09;;;;;;;12.02;2.47;;;8.30;94.60;;;;;;4994577;28;20027;-48
2022/02/26 11:04:36;;;;;;;14.73;2.50;;;8.30;94.30;;;;;;4985864;28;20089;-49
2022/02/26 11:07:03;;;;;;;9.75;2.50;;;8.40;94.00;;;;;;4997923;28;20505;-49
2022/02/26 11:09:29;;;;;;;13.63;2.63;;;8.50;94.20;;;;;;4993509;28;20034;-47
2022/02/26 11:11:57;;;;;;;19.83;2.65;;;8.70;93.20;;;;;;4994249;28;20441;-48
2022/02/26 11:14:25;;;;;;;12.90;2.55;;;8.30;92.70;;;;;;4997396;28;20030;-45
2022/02/26 11:16:56;;;;;;;9.63;2.13;;;8.20;93.20;;;;;;4984429;28;20053;-46
2022/02/26 11:19:24;;;;;;;20.73;3.38;;;8.00;94.40;;;;;;4995740;28;20045;-46
2022/02/26 11:21:50;;;;;;;17.95;3.05;;;7.80;94.50;;;;;;5000518;28;20038;-45
2022/02/26 11:24:17;;;;;;;15.40;3.22;;;7.90;94.80;;;;;;4982195;28;20027;-46
2022/02/26 11:26:44;;;;;;;17.08;2.90;;;7.90;94.30;;;;;;4997075;28;20029;-47
2022/02/26 11:29:11;;;;;;;11.15;3.22;;;7.80;94.50;;;;;;4990537;28;20030;-46
2022/02/26 11:31:48;;;;;;;12.20;2.72;;;7.90;94.60;;;;;;4984192;28;20039;-46
2022/02/26 11:34:22;;;;;;;16.02;3.45;;;8.00;94.70;;;;;;4982135;28;20026;-47
2022/02/26 11:36:57;;;;;;;14.57;2.80;;;8.00;94.70;;;;;;4991037;28;20041;-47
2022/02/26 11:39:22;;;;;;;;;;;8.00;93.90;;;;;;4992581;28;20054;-45
2022/02/26 11:41:48;;;;;;;11.90;2.30;;;8.00;94.00;;;;;;5001529;28;19909;-44
2022/02/26 11:44:37;;;;;;;15.05;2.95;;;7.90;94.20;;;;;;5000338;28;20100;-49
2022/02/26 11:47:17;;;;;;;14.98;2.50;;;7.90;94.10;;;;;;4991878;28;20026;-47
2022/02/26 11:50:12;;;;;;;13.32;2.53;;;7.90;94.60;;;;;;5002069;28;20027;-47
2022/02/26 11:52:50;;;;;;;17.10;2.47;;;8.00;94.60;;;;;;4999073;28;20069;-46
2022/02/26 11:55:30;;;;;;;12.07;2.60;;;8.00;94.50;;;;;;4997700;28;20044;-44
2022/02/26 11:57:59;;;;;;;16.25;2.75;;;8.00;94.10;;;;;;4983757;28;20026;-46
2022/02/26 12:00:25;;;;;;;13.35;2.83;;;8.00;94.70;;;;;;4984439;28;20033;-47
2022/02/26 12:03:24;;;;;;;51.03;18.80;;;7.90;94.50;;;;;;4983365;28;20027;-52
2022/02/26 12:06:17;;;;;;;13.02;5.03;;;7.90;94.90;;;;;;4983089;28;20038;-50
2022/02/26 12:08:46;;;;;;;13.57;3.65;;;8.00;94.80;;;;;;4982664;28;20056;-47
2022/02/26 12:11:33;;;;;;;15.00;2.80;;;8.00;94.40;;;;;;4983657;28;20042;-46
2022/02/26 12:14:03;;;;;;;16.55;2.85;;;8.00;94.50;;;;;;4972706;28;20038;-49
2022/02/26 12:16:35;;;;;;;13.80;3.55;;;8.00;94.60;;;;;;4982665;28;20442;-48
2022/02/26 12:19:18;;;;;;;12.20;3.33;;;7.80;94.70;;;;;;4983057;28;20042;-48
2022/02/26 12:21:47;;;;;;;13.82;4.03;;;8.00;95.50;;;;;;4983581;28;20023;-50
2022/02/26 12:24:22;;;;;;;15.15;2.95;;;7.70;95.30;;;;;;4983386;28;20082;-47
2022/02/26 12:27:07;;;;;;;14.02;3.65;;;7.80;95.60;;;;;;4981874;28;20039;-50
2022/02/26 12:29:39;;;;;;;15.80;4.72;;;7.70;95.50;;;;;;4983453;28;20090;-46
2022/02/26 12:32:07;;;;;;;18.95;2.90;;;7.50;95.30;;;;;;4983083;28;20023;-47
2022/02/26 12:34:40;;;;;;;9.70;2.47;;;7.40;95.30;;;;;;4982730;28;20510;-49
2022/02/26 12:37:05;;;;;;;12.20;3.03;;;7.30;95.50;;;;;;4983017;28;20109;-49
2022/02/26 12:39:31;;;;;;;11.93;3.63;;;7.30;95.40;;;;;;4983368;28;20062;-46
2022/02/26 12:41:57;;;;;;;8.00;2.15;;;7.40;94.90;;;;;;4983428;28;20537;-46
2022/02/26 12:44:24;;;;;;;9.98;2.53;;;7.40;93.60;;;;;;4982932;28;20019;-51
2022/02/26 12:46:51;;;;;;;9.45;2.40;;;7.50;94.30;;;;;;4981924;28;20029;-49